createdAt,value
2019-04-16T00:00:05.823Z,8.70
2019-04-16T00:02:28.336Z,8.70
2019-04-16T00:04:53.614Z,8.60
2019-04-16T00:07:36.237Z,8.60
2019-04-16T00:09:59.598Z,8.60
2019-04-16T00:12:23.672Z,8.60
2019-04-16T00:14:32.403Z,8.60
2019-04-16T00:16:37.833Z,8.60
2019-04-16T00:18:56.425Z,8.50
2019-04-16T00:21:00.082Z,8.50
2019-04-16T00:23:11.129Z,8.50
2019-04-16T00:25:16.393Z,8.50
2019-04-16T00:27:21.545Z,8.50
2019-04-16T00:29:26.719Z,8.50
2019-04-16T00:31:34.365Z,8.60
2019-04-16T00:33:39.346Z,8.50
2019-04-16T00:35:46.625Z,8.50
2019-04-16T00:37:52.429Z,8.40
2019-04-16T00:39:58.094Z,8.40
2019-04-16T00:42:03.243Z,8.40
2019-04-16T00:44:09.098Z,8.40
2019-04-16T00:46:14.202Z,8.30
2019-04-16T00:48:19.597Z,8.30
2019-04-16T00:50:24.905Z,8.30
2019-04-16T00:52:30.016Z,8.30
2019-04-16T00:54:35.876Z,8.20
2019-04-16T00:56:43.519Z,8.20
2019-04-16T00:58:49.415Z,8.10
2019-04-16T01:00:55.116Z,8.00
2019-04-16T01:03:00.432Z,8.00
2019-04-16T01:05:06.038Z,8.00
2019-04-16T01:07:11.217Z,8.00
2019-04-16T01:09:16.409Z,7.90
2019-04-16T01:11:21.896Z,7.90
2019-04-16T01:13:27.254Z,7.80
2019-04-16T01:15:32.802Z,7.80
2019-04-16T01:17:39.352Z,7.80
2019-04-16T01:19:44.415Z,7.70
2019-04-16T01:21:49.779Z,7.70
2019-04-16T01:23:55.122Z,7.60
2019-04-16T01:26:01.659Z,7.50
2019-04-16T01:28:09.319Z,7.50
2019-04-16T01:30:17.461Z,7.50
2019-04-16T01:32:50.752Z,7.50
2019-04-16T01:35:32.848Z,7.50
2019-04-16T01:37:56.764Z,7.50
2019-04-16T01:40:02.967Z,7.50
2019-04-16T01:42:08.165Z,7.50
2019-04-16T01:44:13.696Z,7.50
2019-04-16T01:46:18.898Z,7.50
2019-04-16T01:48:24.074Z,7.40
2019-04-16T01:50:29.230Z,7.50
2019-04-16T01:52:35.709Z,7.40
2019-04-16T01:54:40.790Z,7.40
2019-04-16T01:56:46.125Z,7.40
2019-04-16T01:58:51.657Z,7.40
2019-04-16T02:00:56.916Z,7.30
2019-04-16T02:03:02.017Z,7.30
2019-04-16T02:05:07.799Z,7.30
2019-04-16T02:07:13.323Z,7.30
2019-04-16T02:09:22.774Z,7.30
2019-04-16T02:11:25.058Z,7.20
2019-04-16T02:13:30.245Z,7.20
2019-04-16T02:15:36.063Z,7.20
2019-04-16T02:17:41.168Z,7.20
2019-04-16T02:19:46.724Z,7.10
2019-04-16T02:21:51.872Z,7.10
2019-04-16T02:23:57.161Z,7.10
2019-04-16T02:26:02.524Z,7.10
2019-04-16T02:28:07.759Z,7.10
2019-04-16T02:30:13.164Z,7.00
2019-04-16T02:32:18.286Z,7.00
2019-04-16T02:34:23.550Z,7.00
2019-04-16T02:36:28.683Z,7.00
2019-04-16T02:38:34.185Z,7.00
2019-04-16T02:40:39.903Z,7.00
2019-04-16T02:42:45.147Z,7.00
2019-04-16T02:44:50.525Z,7.00
2019-04-16T02:46:55.768Z,6.90
2019-04-16T02:49:00.919Z,6.90
2019-04-16T02:51:15.776Z,6.90
2019-04-16T02:53:38.718Z,6.80
2019-04-16T02:55:51.941Z,6.80
2019-04-16T02:58:01.828Z,6.80
2019-04-16T03:00:18.488Z,6.80
2019-04-16T03:02:41.338Z,6.70
2019-04-16T03:04:50.589Z,6.80
2019-04-16T03:06:56.432Z,6.70
2019-04-16T03:09:01.823Z,6.70
2019-04-16T03:11:07.230Z,6.70
2019-04-16T03:13:14.707Z,6.60
2019-04-16T03:15:36.129Z,6.50
2019-04-16T03:17:45.804Z,6.40
2019-04-16T03:19:52.109Z,6.40
2019-04-16T03:21:59.151Z,6.30
2019-04-16T03:24:09.323Z,6.30
2019-04-16T03:26:17.780Z,6.30
2019-04-16T03:28:23.491Z,6.20
2019-04-16T03:30:51.083Z,6.10
2019-04-16T03:32:57.551Z,6.10
2019-04-16T03:35:02.978Z,6.00
2019-04-16T03:37:08.181Z,6.10
2019-04-16T03:39:13.967Z,6.10
2019-04-16T03:41:19.599Z,6.00
2019-04-16T03:43:24.830Z,6.00
2019-04-16T03:45:30.200Z,6.00
2019-04-16T03:47:35.367Z,6.00
2019-04-16T03:49:40.866Z,6.00
2019-04-16T03:51:45.851Z,5.90
2019-04-16T03:53:51.171Z,5.80
2019-04-16T03:55:58.284Z,5.90
2019-04-16T03:58:06.061Z,5.90
2019-04-16T04:00:12.808Z,5.80
2019-04-16T04:02:21.981Z,5.80
2019-04-16T04:04:28.919Z,5.80
2019-04-16T04:06:32.058Z,5.80
2019-04-16T04:08:37.251Z,5.80
2019-04-16T04:10:42.697Z,5.80
2019-04-16T04:12:47.831Z,5.70
2019-04-16T04:14:54.263Z,5.70
2019-04-16T04:17:05.442Z,5.70
2019-04-16T04:19:07.362Z,5.60
2019-04-16T04:21:12.391Z,5.50
2019-04-16T04:23:17.624Z,5.50
2019-04-16T04:25:22.830Z,5.40
2019-04-16T04:27:28.207Z,5.40
2019-04-16T04:29:33.880Z,5.40
2019-04-16T04:31:38.984Z,5.50
2019-04-16T04:33:44.101Z,5.50
2019-04-16T04:35:51.032Z,5.60
2019-04-16T04:37:56.460Z,5.50
2019-04-16T04:40:01.957Z,5.40
2019-04-16T04:42:07.167Z,5.30
2019-04-16T04:44:12.735Z,5.20
2019-04-16T04:46:18.214Z,5.10
2019-04-16T04:48:24.322Z,5.20
2019-04-16T04:50:32.411Z,5.20
2019-04-16T04:52:36.959Z,5.20
2019-04-16T04:54:42.465Z,5.30
2019-04-16T04:56:47.967Z,5.40
2019-04-16T04:58:53.168Z,5.50
2019-04-16T05:00:58.917Z,5.60
2019-04-16T05:03:04.071Z,5.70
2019-04-16T05:05:26.770Z,5.70
2019-04-16T05:07:31.867Z,5.80
2019-04-16T05:09:37.240Z,5.80
2019-04-16T05:11:42.530Z,5.90
2019-04-16T05:13:47.663Z,6.00
2019-04-16T05:15:52.699Z,6.10
2019-04-16T05:17:58.123Z,6.10
2019-04-16T05:20:03.445Z,6.20
2019-04-16T05:22:08.581Z,6.30
2019-04-16T05:24:13.902Z,6.40
2019-04-16T05:26:19.239Z,6.40
2019-04-16T05:28:24.651Z,6.50
2019-04-16T05:30:29.753Z,6.70
2019-04-16T05:32:34.879Z,6.80
2019-04-16T05:34:40.430Z,6.90
2019-04-16T05:36:47.843Z,7.00
2019-04-16T05:38:55.474Z,7.20
2019-04-16T05:41:12.487Z,7.40
2019-04-16T05:43:06.585Z,7.60
2019-04-16T05:45:11.982Z,7.90
2019-04-16T05:47:18.247Z,8.10
2019-04-16T05:49:25.660Z,8.30
2019-04-16T05:51:31.489Z,8.70
2019-04-16T05:53:40.100Z,8.80
2019-04-16T05:56:23.408Z,8.90
2019-04-16T05:58:27.503Z,9.00
2019-04-16T06:00:41.719Z,11.10
2019-04-16T06:02:50.565Z,12.60
2019-04-16T06:04:55.983Z,13.80
2019-04-16T06:07:03.704Z,14.50
2019-04-16T06:09:12.244Z,15.00
2019-04-16T06:11:28.511Z,15.70
2019-04-16T06:13:41.378Z,16.50
2019-04-16T06:16:06.846Z,16.60
2019-04-16T06:18:36.765Z,17.20
2019-04-16T06:21:07.433Z,18.10
2019-04-16T06:23:40.934Z,18.10
2019-04-16T06:26:03.778Z,18.00
2019-04-16T06:28:30.109Z,19.40
2019-04-16T06:30:57.669Z,19.30
2019-04-16T06:33:18.373Z,20.30
2019-04-16T06:35:43.871Z,20.60
2019-04-16T06:38:08.746Z,20.70
2019-04-16T06:40:33.173Z,20.90
2019-04-16T06:42:51.438Z,22.10
2019-04-16T06:44:58.294Z,22.30
2019-04-16T06:47:31.579Z,20.80
2019-04-16T06:49:48.204Z,21.20
2019-04-16T06:52:18.013Z,22.20
2019-04-16T06:54:51.590Z,22.50
2019-04-16T06:57:13.311Z,22.90
2019-04-16T06:59:47.837Z,23.40
2019-04-16T07:02:15.190Z,24.20
2019-04-16T07:04:34.863Z,24.90
2019-04-16T07:06:57.518Z,24.90
2019-04-16T07:09:23.447Z,25.20
2019-04-16T07:11:27.118Z,25.60
2019-04-16T07:13:32.610Z,26.00
2019-04-16T07:15:38.189Z,26.00
2019-04-16T07:17:43.435Z,25.40
2019-04-16T07:19:48.517Z,24.80
2019-04-16T07:21:54.368Z,25.70
2019-04-16T07:23:59.766Z,26.10
2019-04-16T07:26:05.012Z,25.20
2019-04-16T07:28:29.013Z,25.60
2019-04-16T07:30:40.559Z,26.70
2019-04-16T07:33:00.949Z,27.10
2019-04-16T07:35:23.512Z,27.80
2019-04-16T07:37:54.142Z,28.00
2019-04-16T07:40:10.229Z,28.20
2019-04-16T07:42:26.510Z,29.10
2019-04-16T07:44:50.913Z,28.10
2019-04-16T07:47:20.169Z,25.70
2019-04-16T07:49:47.847Z,22.60
2019-04-16T07:52:12.304Z,21.50
2019-04-16T07:54:27.947Z,20.50
2019-04-16T07:56:33.524Z,19.10
2019-04-16T07:58:39.093Z,19.10
2019-04-16T08:00:44.855Z,18.60
2019-04-16T08:02:50.700Z,19.70
2019-04-16T08:04:58.490Z,20.70
2019-04-16T08:07:03.917Z,21.60
2019-04-16T08:09:09.443Z,21.10
2019-04-16T08:11:15.033Z,21.50
2019-04-16T08:13:21.183Z,21.30
2019-04-16T08:15:26.357Z,21.40
2019-04-16T08:17:31.705Z,22.40
2019-04-16T08:19:39.482Z,21.60
2019-04-16T08:21:44.774Z,21.70
2019-04-16T08:24:11.023Z,20.60
2019-04-16T08:26:16.073Z,21.40
2019-04-16T08:28:21.714Z,21.30
2019-04-16T08:30:27.521Z,22.20
2019-04-16T08:32:32.501Z,22.60
2019-04-16T08:34:37.746Z,22.00
2019-04-16T08:36:42.877Z,21.30
2019-04-16T08:38:48.259Z,21.60
2019-04-16T08:40:53.593Z,22.10
2019-04-16T08:42:58.997Z,21.20
2019-04-16T08:45:07.612Z,21.80
2019-04-16T08:47:12.804Z,22.60
2019-04-16T08:49:22.088Z,23.10
2019-04-16T08:51:30.947Z,23.10
2019-04-16T08:53:31.680Z,22.50
2019-04-16T08:55:36.523Z,22.10
2019-04-16T08:57:42.101Z,22.10
2019-04-16T08:59:47.168Z,22.10
2019-04-16T09:01:54.428Z,21.50
2019-04-16T09:04:02.668Z,22.60
2019-04-16T09:06:06.412Z,24.10
2019-04-16T09:08:22.656Z,23.80
2019-04-16T09:10:30.939Z,23.30
2019-04-16T09:12:38.126Z,23.70
2019-04-16T09:14:54.901Z,24.60
2019-04-16T09:17:11.424Z,24.20
2019-04-16T09:19:17.856Z,24.30
2019-04-16T09:21:22.854Z,24.90
2019-04-16T09:23:28.101Z,25.00
2019-04-16T09:26:12.403Z,24.50
2019-04-16T09:28:26.280Z,24.40
2019-04-16T09:31:03.127Z,23.80
2019-04-16T09:33:22.384Z,24.90
2019-04-16T09:35:30.080Z,24.80
2019-04-16T09:37:53.213Z,25.10
2019-04-16T09:40:18.064Z,25.80
2019-04-16T09:42:22.547Z,24.90
2019-04-16T09:44:31.479Z,26.00
2019-04-16T09:46:50.438Z,26.20
2019-04-16T09:48:40.381Z,27.00
2019-04-16T09:50:47.823Z,26.60
2019-04-16T09:52:56.147Z,26.50
2019-04-16T09:55:01.761Z,26.50
2019-04-16T09:57:07.298Z,26.70
2019-04-16T09:59:34.033Z,27.00
2019-04-16T10:01:45.439Z,26.30
2019-04-16T10:03:53.797Z,26.40
2019-04-16T10:05:59.119Z,26.80
2019-04-16T10:08:04.320Z,25.60
2019-04-16T10:10:09.392Z,25.70
2019-04-16T10:12:14.546Z,26.00
2019-04-16T10:14:19.843Z,26.30
2019-04-16T10:16:26.413Z,26.10
2019-04-16T10:18:34.432Z,26.10
2019-04-16T10:20:40.402Z,26.00
2019-04-16T10:22:45.294Z,25.60
2019-04-16T10:25:03.211Z,25.50
2019-04-16T10:27:08.748Z,25.60
2019-04-16T10:29:15.908Z,26.00
2019-04-16T10:31:21.747Z,25.10
2019-04-16T10:33:26.745Z,25.10
2019-04-16T10:35:32.586Z,25.70
2019-04-16T10:37:37.553Z,26.90
2019-04-16T10:39:48.643Z,26.90
2019-04-16T10:42:22.333Z,26.50
2019-04-16T10:44:37.890Z,25.70
2019-04-16T10:47:07.687Z,26.40
2019-04-16T10:49:34.084Z,25.60
2019-04-16T10:52:07.194Z,24.00
2019-04-16T10:54:53.399Z,24.90
2019-04-16T10:57:22.458Z,24.60
2019-04-16T10:59:45.848Z,25.00
2019-04-16T11:02:16.584Z,24.20
2019-04-16T11:04:50.995Z,25.20
2019-04-16T11:07:05.344Z,26.50
2019-04-16T11:09:17.472Z,26.80
2019-04-16T11:11:23.015Z,25.20
2019-04-16T11:13:59.392Z,25.50
2019-04-16T11:15:56.593Z,25.80
2019-04-16T11:18:01.709Z,25.80
2019-04-16T11:20:08.548Z,25.00
2019-04-16T11:22:14.194Z,26.20
2019-04-16T11:24:20.653Z,27.20
2019-04-16T11:26:25.798Z,24.60
2019-04-16T11:28:31.135Z,25.30
2019-04-16T11:30:42.316Z,26.40
2019-04-16T11:32:47.635Z,25.20
2019-04-16T11:34:52.737Z,25.40
2019-04-16T11:36:58.517Z,25.50
2019-04-16T11:39:06.145Z,25.60
2019-04-16T11:41:11.544Z,24.80
2019-04-16T11:43:16.734Z,24.30
2019-04-16T11:45:21.734Z,24.80
2019-04-16T11:47:28.119Z,25.70
2019-04-16T11:49:33.596Z,25.80
2019-04-16T11:51:38.802Z,25.40
2019-04-16T11:53:43.646Z,25.10
2019-04-16T11:55:48.888Z,25.60
2019-04-16T11:57:53.878Z,25.40
2019-04-16T12:00:06.441Z,25.10
2019-04-16T12:02:23.932Z,25.90
2019-04-16T12:04:44.836Z,26.50
2019-04-16T12:07:05.189Z,25.60
2019-04-16T12:09:37.041Z,25.50
2019-04-16T12:11:47.802Z,26.00
2019-04-16T12:14:29.603Z,25.40
2019-04-16T12:16:41.947Z,26.20
2019-04-16T12:19:15.240Z,25.90
2019-04-16T12:21:38.196Z,24.60
2019-04-16T12:24:05.241Z,24.50
2019-04-16T12:26:47.632Z,24.90
2019-04-16T12:29:21.447Z,25.50
2019-04-16T12:31:34.003Z,25.40
2019-04-16T12:33:50.345Z,25.10
2019-04-16T12:36:23.533Z,25.40
2019-04-16T12:38:47.852Z,25.70
2019-04-16T12:41:10.662Z,25.70
2019-04-16T12:43:24.140Z,25.30
2019-04-16T12:45:57.535Z,25.70
2019-04-16T12:48:20.811Z,26.00
2019-04-16T12:50:44.855Z,25.90
2019-04-16T12:53:03.732Z,25.00
2019-04-16T12:55:32.498Z,25.20
2019-04-16T12:57:58.777Z,25.40
2019-04-16T13:00:31.384Z,26.00
2019-04-16T13:02:52.914Z,25.30
2019-04-16T13:05:02.348Z,25.20
2019-04-16T13:07:12.324Z,24.90
2019-04-16T13:09:36.272Z,23.80
2019-04-16T13:12:09.399Z,23.70
2019-04-16T13:14:41.119Z,23.20
2019-04-16T13:17:03.968Z,23.20
2019-04-16T13:19:26.820Z,23.10
2019-04-16T13:21:34.511Z,22.90
2019-04-16T13:23:52.844Z,23.40
2019-04-16T13:26:02.542Z,23.50
2019-04-16T13:28:08.064Z,23.30
2019-04-16T13:30:14.277Z,23.40
2019-04-16T13:32:19.468Z,23.30
2019-04-16T13:34:25.311Z,22.70
2019-04-16T13:36:30.652Z,22.20
2019-04-16T13:38:40.413Z,22.30
2019-04-16T13:40:44.853Z,22.40
2019-04-16T13:42:49.956Z,22.00
2019-04-16T13:45:17.919Z,22.10
2019-04-16T13:47:21.491Z,22.00
2019-04-16T13:49:46.891Z,21.90
2019-04-16T13:51:52.072Z,22.00
2019-04-16T13:54:06.044Z,21.50
2019-04-16T13:56:20.419Z,21.50
2019-04-16T13:58:46.347Z,21.40
2019-04-16T14:00:55.905Z,22.10
2019-04-16T14:03:05.007Z,22.50
2019-04-16T14:05:11.488Z,22.60
2019-04-16T14:07:16.639Z,22.30
2019-04-16T14:09:22.208Z,22.50
2019-04-16T14:11:27.540Z,22.40
2019-04-16T14:13:32.850Z,22.60
2019-04-16T14:15:40.287Z,22.70
2019-04-16T14:17:52.537Z,22.70
2019-04-16T14:19:51.843Z,22.90
2019-04-16T14:21:57.163Z,22.20
2019-04-16T14:24:02.821Z,21.80
2019-04-16T14:26:08.489Z,22.10
2019-04-16T14:28:14.050Z,22.40
2019-04-16T14:30:23.389Z,22.40
2019-04-16T14:32:28.496Z,22.70
2019-04-16T14:35:01.642Z,22.50
2019-04-16T14:37:07.117Z,22.40
2019-04-16T14:39:43.966Z,22.10
2019-04-16T14:41:50.241Z,22.10
2019-04-16T14:44:02.260Z,22.00
2019-04-16T14:46:09.593Z,21.70
2019-04-16T14:48:14.342Z,21.50
2019-04-16T14:50:23.348Z,21.20
2019-04-16T14:52:26.994Z,21.30
2019-04-16T14:54:37.218Z,21.50
2019-04-16T14:56:45.784Z,21.50
2019-04-16T14:59:01.402Z,20.90
2019-04-16T15:01:31.924Z,20.80
2019-04-16T15:03:54.980Z,20.70
2019-04-16T15:06:06.871Z,21.00
2019-04-16T15:08:40.783Z,21.10
2019-04-16T15:11:03.937Z,21.50
2019-04-16T15:13:23.101Z,21.80
2019-04-16T15:15:40.624Z,21.90
2019-04-16T15:17:48.286Z,21.60
2019-04-16T15:19:58.683Z,21.30
2019-04-16T15:22:41.390Z,21.30
2019-04-16T15:24:55.227Z,21.00
2019-04-16T15:27:31.798Z,20.50
2019-04-16T15:29:52.561Z,20.40
2019-04-16T15:32:08.923Z,20.40
2019-04-16T15:34:20.216Z,20.30
2019-04-16T15:36:31.329Z,20.20
2019-04-16T15:38:41.604Z,20.00
2019-04-16T15:40:47.217Z,19.90
2019-04-16T15:43:10.099Z,19.90
2019-04-16T15:45:34.277Z,20.10
2019-04-16T15:48:10.848Z,20.10
2019-04-16T15:50:35.794Z,20.00
2019-04-16T15:52:52.553Z,20.00
2019-04-16T15:55:15.608Z,19.80
2019-04-16T15:57:45.728Z,19.90
2019-04-16T16:00:05.813Z,19.80
2019-04-16T16:02:29.992Z,19.80
2019-04-16T16:04:41.268Z,19.70
2019-04-16T16:07:08.728Z,19.60
2019-04-16T16:09:22.156Z,19.70
2019-04-16T16:11:48.024Z,19.70
2019-04-16T16:13:52.877Z,19.60
2019-04-16T16:15:57.925Z,19.60
2019-04-16T16:18:03.496Z,19.60
2019-04-16T16:20:11.262Z,19.50
2019-04-16T16:22:16.454Z,19.60
2019-04-16T16:24:22.104Z,19.60
2019-04-16T16:26:27.324Z,19.60
2019-04-16T16:28:32.674Z,19.60
2019-04-16T16:30:38.153Z,19.70
2019-04-16T16:32:43.230Z,19.70
2019-04-16T16:34:48.263Z,19.70
2019-04-16T16:36:53.493Z,19.60
2019-04-16T16:38:58.642Z,19.60
2019-04-16T16:41:03.849Z,19.50
2019-04-16T16:43:09.085Z,19.40
2019-04-16T16:45:14.351Z,19.20
2019-04-16T16:47:26.310Z,19.10
2019-04-16T16:49:31.663Z,19.00
2019-04-16T16:51:38.274Z,18.90
2019-04-16T16:54:08.466Z,18.80
2019-04-16T16:56:21.108Z,18.70
2019-04-16T16:58:43.038Z,18.50
2019-04-16T17:00:59.972Z,18.30
2019-04-16T17:03:29.083Z,18.20
2019-04-16T17:05:35.755Z,18.10
2019-04-16T17:07:41.116Z,18.10
2019-04-16T17:09:46.153Z,17.90
2019-04-16T17:11:56.478Z,17.80
2019-04-16T17:14:07.488Z,17.70
2019-04-16T17:16:14.454Z,17.70
2019-04-16T17:18:20.690Z,17.60
2019-04-16T17:20:28.415Z,17.50
2019-04-16T17:22:33.563Z,17.40
2019-04-16T17:24:39.011Z,17.30
2019-04-16T17:26:49.848Z,17.20
2019-04-16T17:28:57.058Z,17.10
2019-04-16T17:31:02.152Z,17.10
2019-04-16T17:33:08.111Z,17.00
2019-04-16T17:35:15.540Z,16.90
2019-04-16T17:37:21.373Z,16.80
2019-04-16T17:39:45.518Z,16.80
2019-04-16T17:42:04.979Z,16.70
2019-04-16T17:44:28.211Z,16.60
2019-04-16T17:46:47.880Z,16.60
2019-04-16T17:49:10.662Z,16.50
2019-04-16T17:51:33.690Z,16.40
2019-04-16T17:53:47.559Z,16.40
2019-04-16T17:56:15.514Z,16.40
2019-04-16T17:58:29.568Z,16.30
2019-04-16T18:01:00.081Z,16.30
2019-04-16T18:03:22.841Z,16.20
2019-04-16T18:05:38.119Z,16.10
2019-04-16T18:08:02.088Z,16.10
2019-04-16T18:10:34.036Z,16.10
2019-04-16T18:13:02.228Z,16.00
2019-04-16T18:15:13.579Z,15.90
2019-04-16T18:17:46.903Z,15.80
2019-04-16T18:20:05.247Z,15.70
2019-04-16T18:22:35.740Z,15.60
2019-04-16T18:24:50.742Z,15.50
2019-04-16T18:27:14.099Z,15.40
2019-04-16T18:29:50.669Z,15.40
2019-04-16T18:32:13.421Z,15.30
2019-04-16T18:34:31.043Z,15.30
2019-04-16T18:37:02.188Z,15.20
2019-04-16T18:39:37.520Z,15.20
2019-04-16T18:42:11.335Z,15.10
2019-04-16T18:44:45.246Z,15.00
2019-04-16T18:47:03.759Z,14.90
2019-04-16T18:49:09.242Z,14.80
2019-04-16T18:51:14.653Z,14.80
2019-04-16T18:53:19.952Z,14.70
2019-04-16T18:55:25.292Z,14.70
2019-04-16T18:57:30.380Z,14.60
2019-04-16T18:59:35.776Z,14.60
2019-04-16T19:01:42.938Z,14.50
2019-04-16T19:03:48.345Z,14.50
2019-04-16T19:05:53.638Z,14.40
2019-04-16T19:08:00.851Z,14.40
2019-04-16T19:10:06.261Z,14.40
2019-04-16T19:12:12.016Z,14.40
2019-04-16T19:14:17.196Z,14.40
2019-04-16T19:16:22.170Z,14.30
2019-04-16T19:18:27.355Z,14.30
2019-04-16T19:20:32.489Z,14.30
2019-04-16T19:22:38.860Z,14.30
2019-04-16T19:24:44.460Z,14.20
2019-04-16T19:26:49.462Z,14.20
2019-04-16T19:28:54.590Z,14.20
2019-04-16T19:30:59.570Z,14.10
2019-04-16T19:33:05.203Z,14.00
2019-04-16T19:35:17.560Z,14.10
2019-04-16T19:37:18.411Z,14.10
2019-04-16T19:39:24.480Z,14.00
2019-04-16T19:41:29.668Z,14.00
2019-04-16T19:43:35.683Z,13.90
2019-04-16T19:45:43.642Z,13.90
2019-04-16T19:47:49.439Z,13.90
2019-04-16T19:49:54.758Z,13.90
2019-04-16T19:52:00.551Z,13.90
2019-04-16T19:54:05.869Z,13.80
2019-04-16T19:56:11.263Z,13.80
2019-04-16T19:58:16.457Z,13.80
2019-04-16T20:00:22.933Z,13.80
2019-04-16T20:02:33.074Z,13.80
2019-04-16T20:04:35.447Z,13.70
2019-04-16T20:06:40.582Z,13.70
2019-04-16T20:08:45.715Z,13.70
2019-04-16T20:10:51.663Z,13.60
2019-04-16T20:12:59.032Z,13.60
2019-04-16T20:15:08.271Z,13.60
2019-04-16T20:17:11.446Z,13.50
2019-04-16T20:19:17.272Z,13.50
2019-04-16T20:21:22.566Z,13.40
2019-04-16T20:23:27.691Z,13.40
2019-04-16T20:25:32.941Z,13.30
2019-04-16T20:27:39.631Z,13.30
2019-04-16T20:29:45.023Z,13.20
2019-04-16T20:31:50.593Z,13.20
2019-04-16T20:33:56.193Z,13.20
2019-04-16T20:36:01.412Z,13.20
2019-04-16T20:38:06.658Z,13.10
2019-04-16T20:40:14.652Z,13.10
2019-04-16T20:42:20.464Z,13.00
2019-04-16T20:44:25.828Z,13.00
2019-04-16T20:46:30.893Z,13.00
2019-04-16T20:48:36.377Z,13.00
2019-04-16T20:50:41.553Z,12.90
2019-04-16T20:52:47.074Z,12.90
2019-04-16T20:54:54.440Z,12.90
2019-04-16T20:57:00.302Z,12.80
2019-04-16T20:59:05.743Z,12.80
2019-04-16T21:01:10.974Z,12.70
2019-04-16T21:03:22.396Z,12.60
2019-04-16T21:05:22.877Z,12.60
2019-04-16T21:07:28.244Z,12.50
2019-04-16T21:09:33.444Z,12.50
2019-04-16T21:11:41.187Z,12.40
2019-04-16T21:13:46.903Z,12.40
2019-04-16T21:15:52.788Z,12.40
2019-04-16T21:17:57.932Z,12.30
2019-04-16T21:20:03.038Z,12.20
2019-04-16T21:22:08.628Z,12.20
2019-04-16T21:24:13.926Z,12.10
2019-04-16T21:26:20.001Z,12.10
2019-04-16T21:28:42.597Z,12.00
2019-04-16T21:30:49.673Z,12.00
2019-04-16T21:33:01.780Z,12.00
2019-04-16T21:35:13.357Z,12.00
2019-04-16T21:37:40.353Z,12.00
2019-04-16T21:39:51.202Z,11.90
2019-04-16T21:42:00.911Z,11.90
2019-04-16T21:44:03.308Z,11.90
2019-04-16T21:46:08.470Z,11.90
2019-04-16T21:48:14.836Z,11.90
2019-04-16T21:50:19.989Z,12.00
2019-04-16T21:52:25.311Z,12.00
2019-04-16T21:54:31.378Z,12.00
2019-04-16T21:56:39.591Z,11.90
2019-04-16T21:58:46.650Z,11.90
2019-04-16T22:01:04.285Z,11.90
2019-04-16T22:03:10.831Z,12.00
2019-04-16T22:05:17.695Z,12.00
2019-04-16T22:07:24.723Z,12.00
2019-04-16T22:09:29.891Z,12.00
2019-04-16T22:11:35.259Z,12.10
2019-04-16T22:13:40.682Z,12.00
2019-04-16T22:15:45.848Z,12.00
2019-04-16T22:17:52.322Z,11.90
2019-04-16T22:20:01.275Z,11.80
2019-04-16T22:22:04.907Z,11.70
2019-04-16T22:24:10.110Z,11.70
2019-04-16T22:26:14.979Z,11.70
2019-04-16T22:28:20.477Z,11.60
2019-04-16T22:30:25.656Z,11.60
2019-04-16T22:32:31.365Z,11.60
2019-04-16T22:34:36.497Z,11.60
2019-04-16T22:36:41.602Z,11.70
2019-04-16T22:38:49.629Z,11.70
2019-04-16T22:41:02.930Z,11.80
2019-04-16T22:43:30.104Z,11.80
2019-04-16T22:45:52.438Z,11.80
2019-04-16T22:47:58.227Z,11.80
2019-04-16T22:50:15.137Z,11.80
2019-04-16T22:52:12.212Z,11.70
2019-04-16T22:54:17.710Z,11.60
2019-04-16T22:56:32.942Z,11.60
2019-04-16T22:58:50.834Z,11.70
2019-04-16T23:01:00.328Z,11.60
2019-04-16T23:03:07.054Z,11.60
2019-04-16T23:05:12.291Z,11.60
2019-04-16T23:07:17.472Z,11.60
2019-04-16T23:09:24.494Z,11.60
2019-04-16T23:11:29.870Z,11.60
2019-04-16T23:13:35.256Z,11.50
2019-04-16T23:15:41.649Z,11.50
2019-04-16T23:17:47.426Z,11.50
2019-04-16T23:19:54.589Z,11.50
2019-04-16T23:21:59.515Z,11.50
2019-04-16T23:24:05.409Z,11.60
2019-04-16T23:26:10.547Z,11.60
2019-04-16T23:28:15.797Z,11.60
2019-04-16T23:30:20.775Z,11.60
2019-04-16T23:32:28.697Z,11.60
2019-04-16T23:34:34.873Z,11.60
2019-04-16T23:36:40.159Z,11.60
2019-04-16T23:38:45.264Z,11.60
2019-04-16T23:40:50.535Z,11.50
2019-04-16T23:43:14.264Z,11.50
2019-04-16T23:45:51.093Z,11.50
2019-04-16T23:48:14.660Z,11.60
2019-04-16T23:50:45.144Z,11.60
2019-04-16T23:52:51.950Z,11.60
2019-04-16T23:55:01.584Z,11.70
2019-04-16T23:57:25.625Z,11.60
2019-04-16T23:59:48.652Z,11.60
